Airfield :
LOGIN :

Register | Disclaimer

   EN    FR    IT 

 










Legend :    VFR   Marginal VFR   IFR   Intensive IFR   Very Intensive IFR
Visi :
Ceiling :
>= 8 km
>= 3000ft
5 to 8 km
1000 to 3000 ft
1500m to 5 km
500 to 1000 ft
800 to 1500m
200 to 500 ft
< 800m
< 200 ft
Symbols :   Thunderstorms  Fog  Heavy snow  Heavy precipitations  Wind > 20 kt
SIGMETs :     Misc.  Thunderstorms  Icing  Turbulence  Mountain Waves  Volcanic Ashes







- Airport Elevation : 238 ft
- IATA code : FAB
- Download approach charts


EGLF - Farnborough

CURRENT METAR :
  • 261220Z 14013KT 110V180 CAVOK 25/12 Q1017

EXPIRED METARs :
  • 261150Z 13013KT 100V160 CAVOK 25/12 Q1017
  • 261120Z 12014KT CAVOK 24/11 Q1018
  • 261050Z 13013KT 090V160 CAVOK 24/13 Q1018
  • 261020Z 13011KT 070V160 CAVOK 24/12 Q1018
  • 260950Z 13010KT 090V160 CAVOK 23/12 Q1018

TAF TAF EGLF
Valid from the 26 at 12:00 until the 26 at 21:00 UTC


261100Z 2612/2621 12011KT CAVOK
ATIS : +44 09063 800 400 (*282)
No reported NOTAMs for that airfield.



MET'MAP, your aeronautical weather chart ! - Copyright ORBIFLY December 2007 - Disclaimer

ORBIFLY MET'MAP TEAM :

Programming & Development : Alexandra Zaïnal
Concept & Development : Baudouin d'Aumeries
Co-Development & Prog : Marc-Olivier Méhu
Technical & hardware support : Manuel Goepfert

Contact : metmap@orbifly.com




SOURCES & CREDITS :

   NOAA